Flight Track Log - Related Links

Times and Time Zones

All times are in EDT time to prevent confusion due to time zone crossing. See the RAX81 flight status page for this flight to view local times or setup timezone preferences in your user account.

Time Position Orientation Groundspeed Altitude Reporting Facility
EDT Latitude Longitude Course Direction KTS MPH feet Rate Location/Type
Wed 10:08:23 PM 42.6622 -83.4464 272° West 133 153 1,500  Level Cleveland Center
Wed 10:09:12 PM 42.6633 -83.4886 272° West 134 154 2,800 1,409 Climbing Cleveland Center
Wed 10:10:18 PM 42.6942 -83.5014 343° North 168 193 4,200 1,039 Climbing Cleveland Center
Wed 10:11:19 PM 42.7083 -83.4369 73° East 191 220 5,000 466 Climbing Cleveland Center
Wed 10:12:14 PM 42.6669 -83.4239 167° South 186 214 5,100  Climbing Cleveland Center
Wed 10:13:14 PM 42.6181 -83.4639 211° Southwest 201 231 5,000 347 Descending Cleveland Center
Wed 10:14:15 PM 42.5669 -83.4983 206° Southwest 202 232 5,800 992 Climbing Cleveland Center
Wed 10:15:15 PM 42.5247 -83.5275 207° Southwest 165 190 7,000 1,240 Climbing Cleveland Center
Wed 10:16:16 PM 42.4822 -83.5508 202° Southwest 160 184 8,300 1,230 Climbing Cleveland Center
Wed 10:17:17 PM 42.4422 -83.5714 201° Southwest 156 180 9,500 843 Climbing Cleveland Center
Wed 10:18:17 PM 42.3978 -83.5975 203° Southwest 170 196 10,000 647 Climbing Cleveland Center
Wed 10:19:36 PM 42.3344 -83.6281 200° South 205 236 11,000 1,036 Climbing Cleveland Center
Wed 10:20:36 PM 42.3006 -83.6489 204° Southwest 183 211 12,400 1,050 Climbing Cleveland Center
Wed 10:21:36 PM 42.2628 -83.6528 184° South 154 177 13,100 400 Climbing Cleveland Center
Wed 10:22:36 PM 42.2158 -83.6167 150° Southeast 152 175 13,200 700 Climbing Cleveland Center
Wed 10:23:36 PM 42.1719 -83.6258 189° South 160 184 14,500 900 Climbing Cleveland Center
Wed 10:24:36 PM 42.1319 -83.6408 196° South 160 184 15,000 250 Climbing Cleveland Center
Wed 10:25:36 PM 42.0856 -83.6553 193° South 165 190 15,000  Level Cleveland Center
Wed 10:26:36 PM 42.0353 -83.6697 192° South 176 203 15,000 200 Level Cleveland Center
Wed 10:27:36 PM 41.9847 -83.6839 192° South 181 208 15,400 850 Climbing Cleveland Center
Wed 10:28:36 PM 41.9428 -83.6931 189° South 175 201 16,700 900 Climbing Cleveland Center
Wed 10:29:36 PM 41.9050 -83.7053 194° South 159 183 17,200 450 Climbing Cleveland Center
Wed 10:30:36 PM 41.8650 -83.7200 195° South 154 177 17,600 550 Climbing Cleveland Center
Wed 10:31:36 PM 41.8247 -83.7375 198° South 154 177 18,300 550 Climbing Cleveland Center
Wed 10:32:36 PM 41.7806 -83.7550 196° South 154 177 18,700 450 Climbing Cleveland Center
Wed 10:33:36 PM 41.7383 -83.7694 194° South 154 177 19,200 500 Climbing Cleveland Center
Wed 10:34:36 PM 41.6983 -83.7842 195° South 159 183 19,700 500 Climbing Cleveland Center
Wed 10:35:36 PM 41.6564 -83.7961 192° South 159 183 20,200 150 Climbing Cleveland Center
Wed 10:36:36 PM 41.6061 -83.8019 185° South 172 198 20,000 -100 Descending Cleveland Center
Wed 10:37:36 PM 41.5561 -83.8078 185° South 179 206 20,000  Level Cleveland Center
Wed 10:38:36 PM 41.5036 -83.8161 187° South 185 213 20,000  Level Cleveland Center
Wed 10:39:36 PM 41.4492 -83.8244 187° South 190 219 20,000  Level Cleveland Center
Wed 10:40:36 PM 41.3969 -83.8275 183° South 195 224 20,000  Level Cleveland Center
Wed 10:41:36 PM 41.3425 -83.8331 184° South 200 230 20,000  Level Cleveland Center
Wed 10:42:36 PM 41.2903 -83.8386 185° South 200 230 20,000  Level Cleveland Center
Wed 10:43:36 PM 41.2381 -83.8444 185° South 200 230 20,000  Level Cleveland Center
Wed 10:44:36 PM 41.1856 -83.8500 185° South 200 230 20,000  Level Cleveland Center
Wed 10:46:09 PM 41.0975 -83.8558 183° South 189 217 20,000  Level Indianapolis Center
Wed 10:47:10 PM 41.0472 -83.8614 185° South 193 222 20,000  Level Indianapolis Center
Wed 10:48:11 PM 40.9939 -83.8656 183° South 190 219 20,000  Level Indianapolis Center
Wed 10:49:12 PM 40.9397 -83.8711 184° South 193 222 20,000  Level Indianapolis Center
Wed 10:50:14 PM 40.8875 -83.8736 182° South 188 216 20,000 -49 Level Indianapolis Center
Wed 10:51:15 PM 40.8361 -83.8806 186° South 186 214 19,900 -49 Descending Indianapolis Center
Wed 10:52:16 PM 40.7756 -83.8864 184° South 187 215 19,900 49 Level Indianapolis Center
Wed 10:53:17 PM 40.7233 -83.8908 184° South 185 213 20,000 49 Climbing Indianapolis Center
Wed 10:54:18 PM 40.6708 -83.8950 183° South 186 214 20,000  Level Indianapolis Center
Wed 10:55:20 PM 40.6181 -83.8989 183° South 187 215 20,000  Level Indianapolis Center
Wed 10:56:21 PM 40.5647 -83.9036 184° South 189 217 20,000  Level Indianapolis Center
Wed 10:57:22 PM 40.5133 -83.9083 184° South 186 214 20,000  Level Indianapolis Center
Wed 10:58:23 PM 40.4606 -83.9133 184° South 188 216 20,000  Level Indianapolis Center
Wed 10:59:24 PM 40.4072 -83.9181 184° South 191 220 20,000  Level Indianapolis Center
Wed 11:00:26 PM 40.3542 -83.9222 183° South 188 216 20,000  Level Indianapolis Center
Wed 11:01:27 PM 40.3008 -83.9286 185° South 191 220 20,000  Level Indianapolis Center
Wed 11:02:28 PM 40.2472 -83.9333 184° South 191 220 20,000  Level Indianapolis Center
Wed 11:03:29 PM 40.1931 -83.9375 183° South 191 220 20,000  Level Indianapolis Center
Wed 11:04:30 PM 40.1383 -83.9417 183° South 196 226 20,000  Level Indianapolis Center
Wed 11:05:32 PM 40.0839 -83.9469 184° South 194 223 20,000  Level Indianapolis Center
Wed 11:06:33 PM 40.0289 -83.9519 184° South 195 224 20,000  Level Indianapolis Center
Wed 11:07:34 PM 39.9647 -83.9564 183° South 198 228 20,000  Level Indianapolis Center
Wed 11:08:35 PM 39.9092 -83.9600 183° South 199 229 20,000  Level Indianapolis Center
Wed 11:09:37 PM 39.8544 -83.9633 183° South 197 227 20,000  Level Indianapolis Center
Wed 11:10:38 PM 39.7994 -83.9675 183° South 196 226 20,000  Level Indianapolis Center
Wed 11:11:39 PM 39.7444 -83.9728 184° South 197 227 20,000  Level Indianapolis Center
Wed 11:12:40 PM 39.6903 -83.9789 185° South 195 224 20,000  Level Indianapolis Center
Wed 11:13:42 PM 39.6347 -83.9836 184° South 198 228 20,000  Level Indianapolis Center
Wed 11:14:43 PM 39.5775 -83.9881 183° South 203 234 20,000  Level Indianapolis Center
Wed 11:15:44 PM 39.5208 -83.9939 185° South 203 234 20,000  Level Indianapolis Center
Wed 11:16:45 PM 39.4658 -83.9992 184° South 198 228 20,000  Level Indianapolis Center
Wed 11:17:47 PM 39.4111 -84.0053 185° South 196 226 20,000  Level Indianapolis Center
Wed 11:18:48 PM 39.3544 -84.0106 184° South 200 230 20,000  Level Indianapolis Center
Wed 11:19:49 PM 39.2994 -84.0161 184° South 198 228 20,000  Level Indianapolis Center
Wed 11:20:50 PM 39.2342 -84.0197 182° South 201 231 20,000  Level Indianapolis Center
Wed 11:21:52 PM 39.1786 -84.0236 183° South 199 229 20,000  Level Indianapolis Center
Wed 11:22:53 PM 39.1242 -84.0289 184° South 197 227 20,000  Level Indianapolis Center
Wed 11:23:54 PM 39.0689 -84.0322 183° South 198 228 20,000  Level Indianapolis Center
Wed 11:24:55 PM 39.0119 -84.0381 185° South 203 234 20,000  Level Indianapolis Center
Wed 11:25:57 PM 38.9569 -84.0422 183° South 196 226 20,000  Level Indianapolis Center
Wed 11:26:58 PM 38.9006 -84.0489 185° South 201 231 20,000  Level Indianapolis Center
Wed 11:27:59 PM 38.8456 -84.0536 184° South 197 227 20,000  Level Indianapolis Center
Wed 11:29:00 PM 38.7900 -84.0594 185° South 198 228 20,000  Level Indianapolis Center
Wed 11:30:02 PM 38.7356 -84.0650 185° South 196 226 20,000  Level Indianapolis Center
Wed 11:31:03 PM 38.6800 -84.0708 185° South 197 227 20,000  Level Indianapolis Center
Wed 11:32:04 PM 38.6217 -84.0767 184° South 197 227 20,000  Level Indianapolis Center
Wed 11:33:05 PM 38.5664 -84.0822 184° South 199 229 20,000  Level Indianapolis Center
Wed 11:34:06 PM 38.5106 -84.0886 185° South 201 231 20,000  Level Indianapolis Center
Wed 11:35:08 PM 38.4553 -84.0944 185° South 199 229 20,000  Level Indianapolis Center
Wed 11:36:09 PM 38.3992 -84.1025 186° South 201 231 20,000  Level Indianapolis Center
Wed 11:37:10 PM 38.3358 -84.1108 186° South 197 227 20,000  Level Indianapolis Center
Wed 11:38:11 PM 38.2814 -84.1164 185° South 196 226 20,000  Level Indianapolis Center
Wed 11:39:12 PM 38.2272 -84.1242 186° South 196 226 20,000  Level Indianapolis Center
Wed 11:40:14 PM 38.1719 -84.1311 186° South 199 229 20,000  Level Indianapolis Center
Wed 11:41:15 PM 38.1178 -84.1361 184° South 196 226 20,000 -49 Level Indianapolis Center
Wed 11:42:16 PM 38.0642 -84.1428 186° South 194 223 19,900  Descending Indianapolis Center
Wed 11:43:17 PM 38.0100 -84.1478 184° South 194 223 20,000 49 Climbing Indianapolis Center
Wed 11:44:18 PM 37.9567 -84.1533 185° South 192 221 20,000  Level Indianapolis Center
Wed 11:45:20 PM 37.9025 -84.1581 184° South 195 224 20,000  Level Indianapolis Center
Wed 11:46:21 PM 37.8397 -84.1642 184° South 192 221 20,000  Level Indianapolis Center
Wed 11:47:22 PM 37.7867 -84.1692 184° South 193 222 20,000  Level Indianapolis Center
Wed 11:48:23 PM 37.7322 -84.1739 184° South 194 223 20,000  Level Indianapolis Center
Wed 11:49:24 PM 37.6781 -84.1800 185° South 196 226 20,000  Level Indianapolis Center
Wed 11:50:26 PM 37.6242 -84.1856 185° South 195 224 20,000  Level Indianapolis Center
Wed 11:51:27 PM 37.5683 -84.1914 185° South 199 229 20,000  Level Indianapolis Center
Wed 11:52:28 PM 37.5131 -84.1964 184° South 199 229 20,000  Level Indianapolis Center
Wed 11:53:29 PM 37.4586 -84.2014 184° South 198 228 20,000  Level Indianapolis Center
Wed 11:54:31 PM 37.3953 -84.2083 185° South 198 228 20,000  Level Indianapolis Center
Wed 11:55:32 PM 37.3400 -84.2142 185° South 198 228 20,000  Level Indianapolis Center
Wed 11:56:33 PM 37.2878 -84.2169 182° South 190 219 20,000  Level Indianapolis Center
Wed 11:57:34 PM 37.2308 -84.2222 184° South 200 230 20,000  Level Indianapolis Center
Wed 11:58:35 PM 37.1772 -84.2292 186° South 196 226 20,000  Level Indianapolis Center
Wed 11:59:37 PM 37.1219 -84.2336 184° South 198 228 20,000  Level Indianapolis Center
Thu 12:00:38 AM 37.0672 -84.2397 185° South 197 227 20,000  Level Indianapolis Center
Thu 12:01:39 AM 37.0125 -84.2458 185° South 197 227 20,000  Level Indianapolis Center
Thu 12:02:40 AM 36.9472 -84.2508 184° South 201 231 20,000  Level Indianapolis Center
Thu 12:03:41 AM 36.8925 -84.2556 184° South 198 228 20,000  Level Indianapolis Center
Thu 12:04:43 AM 36.8372 -84.2597 183° South 198 228 20,000  Level Indianapolis Center
Thu 12:05:44 AM 36.7822 -84.2647 184° South 198 228 20,000  Level Indianapolis Center
Thu 12:06:45 AM 36.7289 -84.2686 183° South 194 223 20,000  Level Indianapolis Center
Thu 12:07:46 AM 36.6750 -84.2736 184° South 193 222 20,000  Level Indianapolis Center
Thu 12:08:47 AM 36.6222 -84.2781 184° South 192 221 20,000  Level Indianapolis Center
Thu 12:09:48 AM 36.5669 -84.2822 183° South 196 226 20,000  Level Indianapolis Center
Thu 12:10:49 AM 36.5131 -84.2867 184° South 196 226 20,000  Level Indianapolis Center
Thu 12:11:50 AM 36.4586 -84.2911 184° South 198 228 20,000  Level Indianapolis Center
Thu 12:12:51 AM 36.3928 -84.2978 185° South 199 229 20,000  Level Indianapolis Center
Thu 12:13:52 AM 36.3369 -84.3025 184° South 200 230 20,000  Level Indianapolis Center
Thu 12:14:53 AM 36.2817 -84.3081 185° South 199 229 20,000  Level Indianapolis Center
Thu 12:15:54 AM 36.2250 -84.3139 185° South 202 232 20,000  Level Indianapolis Center
Thu 12:16:55 AM 36.1681 -84.3197 185° South 204 235 20,000  Level Indianapolis Center
Thu 12:17:56 AM 36.1122 -84.3267 186° South 202 232 20,000  Level Indianapolis Center
Thu 12:18:20 AM 36.0850 -84.3317 188° South 201 231 20,000  Level Atlanta Center
Thu 12:19:20 AM 36.0286 -84.3367 184° South 201 231 20,000  Level Atlanta Center
Thu 12:20:20 AM 35.9725 -84.3442 186° South 201 231 20,000  Level Atlanta Center
Thu 12:21:20 AM 35.9161 -84.3464 182° South 201 231 20,000  Level Atlanta Center
Thu 12:22:20 AM 35.8597 -84.3539 186° South 201 231 20,000  Level Atlanta Center
Thu 12:23:20 AM 35.8033 -84.3561 182° South 201 231 20,000  Level Atlanta Center
Thu 12:24:20 AM 35.7469 -84.3611 184° South 201 231 20,000  Level Atlanta Center
Thu 12:25:20 AM 35.6908 -84.3661 184° South 201 231 20,000  Level Atlanta Center
Thu 12:26:20 AM 35.6364 -84.3708 184° South 201 231 20,000  Level Atlanta Center
Thu 12:27:20 AM 35.5800 -84.3733 182° South 201 231 20,000  Level Atlanta Center
Thu 12:28:20 AM 35.5239 -84.3808 186° South 201 231 20,000  Level Atlanta Center
Thu 12:29:20 AM 35.4653 -84.3856 184° South 201 231 20,000  Level Atlanta Center
Thu 12:30:20 AM 35.4089 -84.3931 186° South 201 231 20,000  Level Atlanta Center
Thu 12:31:20 AM 35.3506 -84.3978 184° South 201 231 20,000  Level Atlanta Center
Thu 12:32:20 AM 35.2942 -84.4053 186° South 201 231 20,000  Level Atlanta Center
Thu 12:33:20 AM 35.2358 -84.4125 186° South 206 237 20,000  Level Atlanta Center
Thu 12:34:20 AM 35.1794 -84.4175 184° South 206 237 20,000  Level Atlanta Center
Thu 12:35:20 AM 35.1336 -84.4222 185° South 206 237 20,000  Level Atlanta Center
Thu 12:36:20 AM 35.0731 -84.4297 186° South 206 237 20,000  Level Atlanta Center
Thu 12:37:20 AM 35.0125 -84.4344 184° South 211 243 20,000  Level Atlanta Center
Thu 12:38:20 AM 34.9539 -84.4392 184° South 216 249 20,000  Level Atlanta Center
Thu 12:39:20 AM 34.8872 -84.4261 171° South 216 249 20,000  Level Atlanta Center
Thu 12:40:20 AM 34.8308 -84.4436 194° South 216 249 20,000  Level Atlanta Center
Thu 12:41:20 AM 34.7703 -84.4483 184° South 216 249 20,000  Level Atlanta Center
Thu 12:42:20 AM 34.7119 -84.4531 184° South 216 249 20,000 -450 Level Atlanta Center
Thu 12:43:20 AM 34.6472 -84.4578 183° South 226 260 19,100 -1,250 Descending Atlanta Center
Thu 12:44:20 AM 34.5783 -84.4650 185° South 247 284 17,500 -1,400 Descending Atlanta Center
Thu 12:45:20 AM 34.5136 -84.4700 184° South 262 302 16,300 -1,300 Descending Atlanta Center
Thu 12:46:20 AM 34.4406 -84.4769 184° South 262 302 14,900 -1,500 Descending Atlanta Center
Thu 12:47:20 AM 34.3694 -84.4817 183° South 262 302 13,300 -1,600 Descending Atlanta Center
Thu 12:48:20 AM 34.3006 -84.4864 183° South 255 293 11,700 -1,500 Descending Atlanta Center
Thu 12:49:20 AM 34.2317 -84.4911 183° South 255 293 10,300 -1,550 Descending Atlanta Center
Thu 12:50:20 AM 34.1669 -84.4958 183° South 255 293 8,600 -1,700 Descending Atlanta Center
Thu 12:51:20 AM 34.1003 -84.5003 183° South 250 288 6,900 -1,650 Descending Atlanta Center
Thu 12:52:20 AM 34.0314 -84.5075 185° South 239 275 5,300 -1,550 Descending Atlanta Center
Thu 12:53:20 AM 33.9686 -84.5122 184° South 233 268 3,800 -1,300 Descending Atlanta Center
Thu 12:54:20 AM 33.9081 -84.5144 182° South 233 268 2,700 -832 Descending Atlanta Center
Thu 12:55:01 AM 33.8667 -84.5000 164° South 204 235 2,400 -178 Descending Atlanta TRACON
Thu 12:56:01 AM 33.8333 -84.4833 157° South 154 177 2,400 -400 Level Atlanta TRACON
Thu 12:57:01 AM 33.7833 -84.5000 195° South 128 147 1,600 -800 Descending Atlanta TRACON
Thu 12:59:00 AM 33.7667 -84.5167 180° South  Level FlightAware Approximate

Login

Don't have an account? Register now (free) for customized features, flight alerts, and more!